AFR600 TFFR-TFFF
Flight info
| Callsign | AFR600 |
|---|---|
| Flight time | 0h 26m |
| Altitude | 13000 |
| Route | KATIM2F KATIM DCT KAREX DCT FOF |
| Aircraft | A320/M-SDE3FGHIRWY/LB1 |
Departure
| Time | 2026-04-28 04:01 |
|---|---|
| Airport | Maryse Condé International Airport (TFFR) |
Arrival
| Time | 2026-04-28 04:28 |
|---|---|
| Airport | Martinique Aimé Césaire International Airport (TFFF) |
| Time | Latitude | Longitude | Altitude | Speed | Heading |
|---|---|---|---|---|---|
| 2026-04-28 03:34 | 16.26921 | -61.52727 | 21 ft | 0 kts | 40° |
| 2026-04-28 03:54 | 16.26912 | -61.52734 | 22 ft | 4 kts | 41° |
| 2026-04-28 03:54 | 16.26892 | -61.52753 | 24 ft | 4 kts | 43° |
| 2026-04-28 03:54 | 16.26873 | -61.52772 | 21 ft | 4 kts | 45° |
| 2026-04-28 03:54 | 16.26854 | -61.52792 | 22 ft | 4 kts | 53° |
| 2026-04-28 03:55 | 16.26842 | -61.52816 | 21 ft | 4 kts | 82° |
| 2026-04-28 03:55 | 16.26841 | -61.52830 | 21 ft | 1 kts | 101° |
| 2026-04-28 03:55 | 16.26842 | -61.52831 | 21 ft | 0 kts | 101° |
| 2026-04-28 03:57 | 16.26840 | -61.52823 | 21 ft | 6 kts | 102° |
| 2026-04-28 03:57 | 16.26823 | -61.52740 | 21 ft | 15 kts | 101° |
| 2026-04-28 03:57 | 16.26803 | -61.52628 | 21 ft | 17 kts | 101° |
| 2026-04-28 03:57 | 16.26780 | -61.52504 | 21 ft | 18 kts | 101° |
| 2026-04-28 03:58 | 16.26755 | -61.52368 | 21 ft | 20 kts | 101° |
| 2026-04-28 03:58 | 16.26728 | -61.52224 | 21 ft | 19 kts | 104° |
| 2026-04-28 03:58 | 16.26625 | -61.52190 | 21 ft | 17 kts | 192° |
| 2026-04-28 03:58 | 16.26520 | -61.52169 | 23 ft | 15 kts | 117° |
| 2026-04-28 03:59 | 16.26502 | -61.52080 | 27 ft | 10 kts | 100° |
| 2026-04-28 03:59 | 16.26491 | -61.52017 | 29 ft | 10 kts | 101° |
| 2026-04-28 03:59 | 16.26475 | -61.51932 | 31 ft | 13 kts | 101° |
| 2026-04-28 03:59 | 16.26456 | -61.51830 | 33 ft | 15 kts | 101° |
| 2026-04-28 04:00 | 16.26394 | -61.51785 | 32 ft | 12 kts | 191° |
| 2026-04-28 04:00 | 16.26311 | -61.51802 | 30 ft | 13 kts | 191° |
| 2026-04-28 04:00 | 16.26277 | -61.51829 | 30 ft | 5 kts | 271° |
| 2026-04-28 04:00 | 16.26288 | -61.51875 | 30 ft | 16 kts | 282° |
| 2026-04-28 04:01 | 16.26360 | -61.52265 | 27 ft | 92 kts | 281° |
| 2026-04-28 04:01 | 16.26522 | -61.53141 | 23 ft | 152 kts | 281° |
| 2026-04-28 04:01 | 16.26735 | -61.54296 | 360 ft | 170 kts | 281° |
| 2026-04-28 04:01 | 16.26998 | -61.55554 | 857 ft | 183 kts | 283° |
| 2026-04-28 04:02 | 16.27292 | -61.56904 | 1315 ft | 200 kts | 283° |
| 2026-04-28 04:02 | 16.27588 | -61.58357 | 1860 ft | 211 kts | 279° |
| 2026-04-28 04:02 | 16.27712 | -61.59901 | 2462 ft | 214 kts | 266° |
| 2026-04-28 04:02 | 16.27373 | -61.61386 | 3140 ft | 212 kts | 241° |
| 2026-04-28 04:03 | 16.26445 | -61.62583 | 3663 ft | 216 kts | 212° |
| 2026-04-28 04:03 | 16.25068 | -61.63151 | 4156 ft | 218 kts | 179° |
| 2026-04-28 04:03 | 16.23627 | -61.62699 | 4467 ft | 227 kts | 138° |
| 2026-04-28 04:03 | 16.22551 | -61.61435 | 4776 ft | 248 kts | 123° |
| 2026-04-28 04:04 | 16.21579 | -61.59884 | 5354 ft | 261 kts | 119° |
| 2026-04-28 04:04 | 16.20635 | -61.58243 | 6135 ft | 267 kts | 118° |
| 2026-04-28 04:04 | 16.19681 | -61.56571 | 6896 ft | 272 kts | 119° |
| 2026-04-28 04:04 | 16.18695 | -61.54870 | 7674 ft | 276 kts | 119° |
| 2026-04-28 04:05 | 16.17678 | -61.53151 | 8433 ft | 281 kts | 119° |
| 2026-04-28 04:05 | 16.16631 | -61.51416 | 9174 ft | 286 kts | 121° |
| 2026-04-28 04:05 | 16.15555 | -61.49654 | 9918 ft | 291 kts | 120° |
| 2026-04-28 04:05 | 16.14412 | -61.47861 | 10398 ft | 306 kts | 126° |
| 2026-04-28 04:06 | 16.12856 | -61.46237 | 10599 ft | 331 kts | 142° |
| 2026-04-28 04:06 | 16.10793 | -61.45008 | 10742 ft | 355 kts | 158° |
| 2026-04-28 04:06 | 16.08323 | -61.44380 | 10857 ft | 378 kts | 174° |
| 2026-04-28 04:06 | 16.05635 | -61.44222 | 11076 ft | 394 kts | 176° |
| 2026-04-28 04:07 | 16.02890 | -61.44081 | 11584 ft | 399 kts | 176° |
| 2026-04-28 04:07 | 16.00092 | -61.43934 | 12197 ft | 401 kts | 176° |
| 2026-04-28 04:07 | 15.97303 | -61.43785 | 12781 ft | 403 kts | 176° |
| 2026-04-28 04:07 | 15.94503 | -61.43632 | 12997 ft | 405 kts | 176° |
| 2026-04-28 04:08 | 15.91660 | -61.43471 | 13056 ft | 411 kts | 176° |
| 2026-04-28 04:08 | 15.88796 | -61.43306 | 13052 ft | 413 kts | 176° |
| 2026-04-28 04:08 | 15.85929 | -61.43142 | 13052 ft | 413 kts | 176° |
| 2026-04-28 04:08 | 15.83063 | -61.42982 | 13057 ft | 412 kts | 176° |
| 2026-04-28 04:09 | 15.80196 | -61.42823 | 13051 ft | 413 kts | 176° |
| 2026-04-28 04:09 | 15.77322 | -61.42667 | 13053 ft | 413 kts | 177° |
| 2026-04-28 04:09 | 15.74453 | -61.42512 | 13054 ft | 413 kts | 176° |
| 2026-04-28 04:09 | 15.71584 | -61.42353 | 13055 ft | 412 kts | 176° |
| 2026-04-28 04:10 | 15.68720 | -61.42190 | 13050 ft | 414 kts | 176° |
| 2026-04-28 04:10 | 15.65845 | -61.42026 | 13054 ft | 414 kts | 176° |
| 2026-04-28 04:10 | 15.62967 | -61.41863 | 13062 ft | 413 kts | 176° |
| 2026-04-28 04:10 | 15.60097 | -61.41700 | 13060 ft | 413 kts | 176° |
| 2026-04-28 04:11 | 15.57228 | -61.41539 | 13056 ft | 414 kts | 176° |
| 2026-04-28 04:11 | 15.54350 | -61.41381 | 13061 ft | 413 kts | 176° |
| 2026-04-28 04:11 | 15.51484 | -61.41223 | 13060 ft | 413 kts | 176° |
| 2026-04-28 04:11 | 15.48614 | -61.41062 | 13058 ft | 414 kts | 176° |
| 2026-04-28 04:12 | 15.45755 | -61.40901 | 13057 ft | 414 kts | 176° |
| 2026-04-28 04:12 | 15.42916 | -61.40742 | 13054 ft | 414 kts | 176° |
| 2026-04-28 04:12 | 15.40005 | -61.40576 | 13055 ft | 413 kts | 175° |
| 2026-04-28 04:12 | 15.37241 | -61.40165 | 13047 ft | 398 kts | 170° |
| 2026-04-28 04:13 | 15.34578 | -61.39689 | 13050 ft | 377 kts | 169° |
| 2026-04-28 04:13 | 15.32058 | -61.39226 | 13045 ft | 358 kts | 169° |
| 2026-04-28 04:13 | 15.29670 | -61.38782 | 13047 ft | 341 kts | 169° |
| 2026-04-28 04:13 | 15.27380 | -61.38354 | 13051 ft | 329 kts | 169° |
| 2026-04-28 04:14 | 15.25135 | -61.37933 | 13043 ft | 327 kts | 169° |
| 2026-04-28 04:14 | 15.22893 | -61.37515 | 13044 ft | 327 kts | 169° |
| 2026-04-28 04:14 | 15.20659 | -61.37102 | 13046 ft | 326 kts | 169° |
| 2026-04-28 04:14 | 15.18431 | -61.36690 | 13046 ft | 325 kts | 168° |
| 2026-04-28 04:15 | 15.16208 | -61.36280 | 13046 ft | 325 kts | 169° |
| 2026-04-28 04:15 | 15.13971 | -61.35871 | 13044 ft | 326 kts | 169° |
| 2026-04-28 04:15 | 15.09552 | -61.35062 | 12716 ft | 317 kts | 168° |
| 2026-04-28 04:16 | 15.07398 | -61.34668 | 12468 ft | 310 kts | 169° |
| 2026-04-28 04:16 | 15.05291 | -61.34284 | 12224 ft | 306 kts | 168° |
| 2026-04-28 04:16 | 15.03209 | -61.33904 | 11992 ft | 302 kts | 168° |
| 2026-04-28 04:16 | 15.01152 | -61.33526 | 11679 ft | 299 kts | 168° |
| 2026-04-28 04:17 | 14.99107 | -61.33150 | 11316 ft | 298 kts | 168° |
| 2026-04-28 04:17 | 14.97067 | -61.32776 | 10937 ft | 298 kts | 168° |
| 2026-04-28 04:17 | 14.95021 | -61.32399 | 10554 ft | 299 kts | 168° |
| 2026-04-28 04:17 | 14.92977 | -61.32023 | 10165 ft | 299 kts | 168° |
| 2026-04-28 04:18 | 14.90924 | -61.31646 | 9748 ft | 300 kts | 168° |
| 2026-04-28 04:18 | 14.88868 | -61.31269 | 9332 ft | 300 kts | 168° |
| 2026-04-28 04:18 | 14.86815 | -61.30896 | 8911 ft | 299 kts | 168° |
| 2026-04-28 04:18 | 14.84775 | -61.30523 | 8542 ft | 296 kts | 167° |
| 2026-04-28 04:19 | 14.83432 | -61.30239 | 8219 ft | 296 kts | 161° |
| 2026-04-28 04:19 | 14.81495 | -61.29572 | 7832 ft | 293 kts | 159° |
| 2026-04-28 04:19 | 14.79581 | -61.28905 | 7468 ft | 288 kts | 159° |
| 2026-04-28 04:19 | 14.77678 | -61.28247 | 6948 ft | 286 kts | 159° |
| 2026-04-28 04:20 | 14.75809 | -61.27604 | 6507 ft | 281 kts | 158° |
| 2026-04-28 04:20 | 14.73973 | -61.26971 | 6065 ft | 276 kts | 158° |
| 2026-04-28 04:20 | 14.72249 | -61.26375 | 5657 ft | 269 kts | 158° |
| 2026-04-28 04:20 | 14.70428 | -61.25743 | 5221 ft | 263 kts | 158° |
| 2026-04-28 04:21 | 14.68709 | -61.25148 | 4806 ft | 258 kts | 158° |
| 2026-04-28 04:21 | 14.67041 | -61.24547 | 4448 ft | 247 kts | 152° |
| 2026-04-28 04:21 | 14.65704 | -61.23606 | 4324 ft | 222 kts | 130° |
| 2026-04-28 04:21 | 14.64776 | -61.22420 | 4197 ft | 203 kts | 124° |
| 2026-04-28 04:22 | 14.63941 | -61.21310 | 4102 ft | 188 kts | 124° |
| 2026-04-28 04:22 | 14.62939 | -61.19977 | 3868 ft | 169 kts | 124° |
| 2026-04-28 04:22 | 14.62459 | -61.19339 | 3723 ft | 162 kts | 124° |
| 2026-04-28 04:22 | 14.61787 | -61.18442 | 3514 ft | 155 kts | 123° |
| 2026-04-28 04:23 | 14.61144 | -61.17579 | 3317 ft | 149 kts | 123° |
| 2026-04-28 04:23 | 14.60534 | -61.16763 | 3146 ft | 137 kts | 123° |
| 2026-04-28 04:23 | 14.59962 | -61.15993 | 3053 ft | 135 kts | 121° |
| 2026-04-28 04:23 | 14.59446 | -61.15194 | 2862 ft | 135 kts | 117° |
| 2026-04-28 04:24 | 14.58969 | -61.14360 | 2640 ft | 134 kts | 116° |
| 2026-04-28 04:24 | 14.58518 | -61.13521 | 2413 ft | 133 kts | 114° |
| 2026-04-28 04:24 | 14.58134 | -61.12643 | 2141 ft | 132 kts | 109° |
| 2026-04-28 04:24 | 14.57839 | -61.11761 | 1903 ft | 132 kts | 104° |
| 2026-04-28 04:25 | 14.57651 | -61.10811 | 1680 ft | 133 kts | 95° |
| 2026-04-28 04:25 | 14.57591 | -61.09872 | 1446 ft | 134 kts | 89° |
| 2026-04-28 04:25 | 14.57644 | -61.08930 | 1317 ft | 130 kts | 83° |
| 2026-04-28 04:25 | 14.57781 | -61.07995 | 1137 ft | 133 kts | 79° |
| 2026-04-28 04:26 | 14.57950 | -61.07066 | 983 ft | 131 kts | 80° |
| 2026-04-28 04:26 | 14.58103 | -61.06150 | 828 ft | 128 kts | 79° |
| 2026-04-28 04:26 | 14.58260 | -61.05242 | 671 ft | 129 kts | 82° |
| 2026-04-28 04:26 | 14.58435 | -61.04302 | 470 ft | 132 kts | 79° |
| 2026-04-28 04:27 | 14.58593 | -61.03340 | 310 ft | 138 kts | 80° |
| 2026-04-28 04:27 | 14.58754 | -61.02372 | 139 ft | 135 kts | 80° |
| 2026-04-28 04:27 | 14.58915 | -61.01444 | 27 ft | 122 kts | 79° |
| 2026-04-28 04:27 | 14.59037 | -61.00718 | 20 ft | 78 kts | 80° |
| 2026-04-28 04:28 | 14.59098 | -61.00357 | 15 ft | 37 kts | 80° |
| 2026-04-28 04:28 | 14.59141 | -61.00112 | 16 ft | 28 kts | 80° |
| 2026-04-28 04:28 | 14.59187 | -61.00020 | 18 ft | 11 kts | 7° |
| 2026-04-28 04:28 | 14.59253 | -61.00031 | 19 ft | 9 kts | 349° |
| 2026-04-28 04:29 | 14.59308 | -61.00042 | 19 ft | 8 kts | 348° |
| 2026-04-28 04:29 | 14.59360 | -61.00053 | 18 ft | 8 kts | 347° |
| 2026-04-28 04:29 | 14.59412 | -61.00058 | 17 ft | 8 kts | 12° |
| 2026-04-28 04:29 | 14.59444 | -61.00045 | 17 ft | 2 kts | 20° |
| 2026-04-28 04:30 | 14.59449 | -61.00043 | 17 ft | 0 kts | 20° |
| 2026-04-28 04:30 | 14.59455 | -61.00041 | 15 ft | 0 kts | 20° |